sensor_id;sensor_type;location;lat;lon;timestamp;temperature;humidity
20773;DHT22;10546;50.674;4.616;2023-02-21T06:41:07;7.20;99.90
20773;DHT22;10546;50.674;4.616;2023-02-21T06:43:33;7.30;99.90
20773;DHT22;10546;50.674;4.616;2023-02-21T06:46:01;7.20;99.90
20773;DHT22;10546;50.674;4.616;2023-02-21T06:48:27;7.20;99.90
20773;DHT22;10546;50.674;4.616;2023-02-21T06:50:52;7.30;99.90
20773;DHT22;10546;50.674;4.616;2023-02-21T06:53:18;7.30;99.90
20773;DHT22;10546;50.674;4.616;2023-02-21T06:55:44;7.30;99.90
20773;DHT22;10546;50.674;4.616;2023-02-21T06:58:09;7.40;99.90
20773;DHT22;10546;50.674;4.616;2023-02-21T07:00:35;7.30;99.90
20773;DHT22;10546;50.674;4.616;2023-02-21T07:03:01;7.20;99.90
20773;DHT22;10546;50.674;4.616;2023-02-21T07:05:26;7.40;99.90
20773;DHT22;10546;50.674;4.616;2023-02-21T07:07:53;7.20;99.90
20773;DHT22;10546;50.674;4.616;2023-02-21T07:10:19;7.20;99.90
20773;DHT22;10546;50.674;4.616;2023-02-21T07:12:44;7.20;99.90
20773;DHT22;10546;50.674;4.616;2023-02-21T07:15:10;7.10;99.90
20773;DHT22;10546;50.674;4.616;2023-02-21T07:17:36;7.20;99.90
20773;DHT22;10546;50.674;4.616;2023-02-21T07:20:02;7.20;99.90
20773;DHT22;10546;50.674;4.616;2023-02-21T07:22:29;7.20;99.90
20773;DHT22;10546;50.674;4.616;2023-02-21T07:24:55;7.20;99.90
20773;DHT22;10546;50.674;4.616;2023-02-21T07:27:21;7.20;99.90
20773;DHT22;10546;50.674;4.616;2023-02-21T07:29:48;7.30;99.90
20773;DHT22;10546;50.674;4.616;2023-02-21T07:32:17;7.30;99.90
20773;DHT22;10546;50.674;4.616;2023-02-21T07:34:43;7.30;99.90
20773;DHT22;10546;50.674;4.616;2023-02-21T07:37:10;7.50;99.90
20773;DHT22;10546;50.674;4.616;2023-02-21T07:39:36;7.60;99.90
20773;DHT22;10546;50.674;4.616;2023-02-21T07:42:02;7.70;99.90
20773;DHT22;10546;50.674;4.616;2023-02-21T07:44:28;7.50;99.90
20773;DHT22;10546;50.674;4.616;2023-02-21T07:46:55;7.50;99.90
20773;DHT22;10546;50.674;4.616;2023-02-21T07:49:21;7.60;99.90
20773;DHT22;10546;50.674;4.616;2023-02-21T07:51:47;7.60;99.90
20773;DHT22;10546;50.674;4.616;2023-02-21T07:54:12;7.60;99.90
20773;DHT22;10546;50.674;4.616;2023-02-21T07:56:45;7.60;99.90
20773;DHT22;10546;50.674;4.616;2023-02-21T07:59:11;7.50;99.90
20773;DHT22;10546;50.674;4.616;2023-02-21T08:01:37;7.50;99.90
20773;DHT22;10546;50.674;4.616;2023-02-21T08:04:03;7.50;99.90
20773;DHT22;10546;50.674;4.616;2023-02-21T08:06:28;7.50;99.90
20773;DHT22;10546;50.674;4.616;2023-02-21T08:08:54;7.40;99.90
20773;DHT22;10546;50.674;4.616;2023-02-21T08:11:20;7.40;99.90
20773;DHT22;10546;50.674;4.616;2023-02-21T08:13:46;7.60;99.90
20773;DHT22;10546;50.674;4.616;2023-02-21T08:16:12;7.60;99.90
20773;DHT22;10546;50.674;4.616;2023-02-21T08:18:38;7.80;99.90
20773;DHT22;10546;50.674;4.616;2023-02-21T08:21:08;7.70;99.90
20773;DHT22;10546;50.674;4.616;2023-02-21T08:23:33;7.80;99.90
20773;DHT22;10546;50.674;4.616;2023-02-21T08:25:59;7.70;99.90
20773;DHT22;10546;50.674;4.616;2023-02-21T08:28:24;7.50;99.90
20773;DHT22;10546;50.674;4.616;2023-02-21T08:30:50;7.40;99.90
20773;DHT22;10546;50.674;4.616;2023-02-21T08:33:17;7.50;99.90
20773;DHT22;10546;50.674;4.616;2023-02-21T08:35:42;7.50;99.90
20773;DHT22;10546;50.674;4.616;2023-02-21T08:38:08;7.70;99.90
20773;DHT22;10546;50.674;4.616;2023-02-21T08:40:34;7.60;99.90
20773;DHT22;10546;50.674;4.616;2023-02-21T08:43:00;7.70;99.90
20773;DHT22;10546;50.674;4.616;2023-02-21T08:45:27;7.60;99.90
20773;DHT22;10546;50.674;4.616;2023-02-21T08:47:54;7.70;99.90
20773;DHT22;10546;50.674;4.616;2023-02-21T08:50:21;7.80;99.90
20773;DHT22;10546;50.674;4.616;2023-02-21T08:52:48;7.60;99.90
20773;DHT22;10546;50.674;4.616;2023-02-21T08:55:14;7.80;99.90
20773;DHT22;10546;50.674;4.616;2023-02-21T08:57:50;7.80;99.90
20773;DHT22;10546;50.674;4.616;2023-02-21T09:00:17;7.90;99.90
20773;DHT22;10546;50.674;4.616;2023-02-21T09:02:43;7.90;99.90
20773;DHT22;10546;50.674;4.616;2023-02-21T09:05:18;8.00;99.90
20773;DHT22;10546;50.674;4.616;2023-02-21T09:07:48;7.90;99.90
20773;DHT22;10546;50.674;4.616;2023-02-21T09:10:15;7.80;99.90
20773;DHT22;10546;50.674;4.616;2023-02-21T09:12:41;7.70;99.90
20773;DHT22;10546;50.674;4.616;2023-02-21T09:15:07;7.70;99.90
20773;DHT22;10546;50.674;4.616;2023-02-21T09:17:33;7.60;99.90
20773;DHT22;10546;50.674;4.616;2023-02-21T09:20:07;7.80;99.90
20773;DHT22;10546;50.674;4.616;2023-02-21T09:22:33;7.90;99.90
20773;DHT22;10546;50.674;4.616;2023-02-21T09:24:59;7.90;99.90
20773;DHT22;10546;50.674;4.616;2023-02-21T09:27:25;7.90;99.90
20773;DHT22;10546;50.674;4.616;2023-02-21T09:30:08;7.90;99.90
20773;DHT22;10546;50.674;4.616;2023-02-21T09:32:35;7.90;99.90
20773;DHT22;10546;50.674;4.616;2023-02-21T09:35:02;8.10;99.90
20773;DHT22;10546;50.674;4.616;2023-02-21T09:37:28;8.00;99.90
20773;DHT22;10546;50.674;4.616;2023-02-21T09:39:53;7.90;99.90
20773;DHT22;10546;50.674;4.616;2023-02-21T09:42:28;7.90;99.90
20773;DHT22;10546;50.674;4.616;2023-02-21T09:44:55;8.10;99.90
20773;DHT22;10546;50.674;4.616;2023-02-21T09:47:29;8.10;99.90
20773;DHT22;10546;50.674;4.616;2023-02-21T09:50:03;8.10;99.90
20773;DHT22;10546;50.674;4.616;2023-02-21T09:52:33;8.10;99.90
20773;DHT22;10546;50.674;4.616;2023-02-21T09:55:13;8.00;99.90
20773;DHT22;10546;50.674;4.616;2023-02-21T09:57:40;8.00;99.90
20773;DHT22;10546;50.674;4.616;2023-02-21T10:00:16;8.00;99.90
20773;DHT22;10546;50.674;4.616;2023-02-21T10:02:45;7.90;99.90
20773;DHT22;10546;50.674;4.616;2023-02-21T10:05:17;7.90;99.90
20773;DHT22;10546;50.674;4.616;2023-02-21T10:10:29;7.80;99.90
20773;DHT22;10546;50.674;4.616;2023-02-21T10:13:04;8.00;99.90
20773;DHT22;10546;50.674;4.616;2023-02-21T10:16:27;8.00;99.90
20773;DHT22;10546;50.674;4.616;2023-02-21T10:18:47;8.10;99.90
20773;DHT22;10546;50.674;4.616;2023-02-21T10:21:29;8.00;99.90
20773;DHT22;10546;50.674;4.616;2023-02-21T10:23:56;8.20;99.90
20773;DHT22;10546;50.674;4.616;2023-02-21T10:26:27;8.20;99.90
20773;DHT22;10546;50.674;4.616;2023-02-21T10:28:53;8.10;99.90
20773;DHT22;10546;50.674;4.616;2023-02-21T10:31:38;8.10;99.90
20773;DHT22;10546;50.674;4.616;2023-02-21T10:34:08;8.10;99.90
20773;DHT22;10546;50.674;4.616;2023-02-21T10:36:39;8.10;99.90
20773;DHT22;10546;50.674;4.616;2023-02-21T10:39:12;8.10;99.90
20773;DHT22;10546;50.674;4.616;2023-02-21T10:41:40;8.10;99.90
20773;DHT22;10546;50.674;4.616;2023-02-21T10:49:22;8.40;99.90
20773;DHT22;10546;50.674;4.616;2023-02-21T10:52:08;8.60;99.90
20773;DHT22;10546;50.674;4.616;2023-02-21T10:54:35;8.70;99.90
20773;DHT22;10546;50.674;4.616;2023-02-21T10:57:04;8.80;99.90
20773;DHT22;10546;50.674;4.616;2023-02-21T10:59:34;8.70;99.90
20773;DHT22;10546;50.674;4.616;2023-02-21T11:02:02;8.90;99.90
20773;DHT22;10546;50.674;4.616;2023-02-21T11:04:29;8.90;99.90
20773;DHT22;10546;50.674;4.616;2023-02-21T11:07:08;8.90;99.90
20773;DHT22;10546;50.674;4.616;2023-02-21T11:09:42;9.10;99.90
20773;DHT22;10546;50.674;4.616;2023-02-21T11:14:41;9.30;99.90
20773;DHT22;10546;50.674;4.616;2023-02-21T11:17:21;9.40;99.90
20773;DHT22;10546;50.674;4.616;2023-02-21T11:22:18;9.40;99.90
20773;DHT22;10546;50.674;4.616;2023-02-21T11:24:57;9.50;99.90
20773;DHT22;10546;50.674;4.616;2023-02-21T11:27:24;9.60;99.90
20773;DHT22;10546;50.674;4.616;2023-02-21T11:29:51;9.70;99.90
20773;DHT22;10546;50.674;4.616;2023-02-21T11:32:54;9.70;99.90
20773;DHT22;10546;50.674;4.616;2023-02-21T11:35:33;9.80;99.90
20773;DHT22;10546;50.674;4.616;2023-02-21T11:38:02;9.90;99.90
20773;DHT22;10546;50.674;4.616;2023-02-21T11:43:32;9.80;99.90
20773;DHT22;10546;50.674;4.616;2023-02-21T11:46:17;9.70;99.90
20773;DHT22;10546;50.674;4.616;2023-02-21T11:49:07;9.60;99.90
20773;DHT22;10546;50.674;4.616;2023-02-21T11:51:47;9.70;99.90
20773;DHT22;10546;50.674;4.616;2023-02-21T11:54:14;9.50;99.90
20773;DHT22;10546;50.674;4.616;2023-02-21T11:56:53;9.50;99.90
20773;DHT22;10546;50.674;4.616;2023-02-21T12:05:02;9.70;99.90
20773;DHT22;10546;50.674;4.616;2023-02-21T12:30:15;10.50;99.90
20773;DHT22;10546;50.674;4.616;2023-02-21T12:38:32;10.70;99.90
20773;DHT22;10546;50.674;4.616;2023-02-21T12:41:03;10.90;99.90
20773;DHT22;10546;50.674;4.616;2023-02-21T12:46:27;11.20;99.90
20773;DHT22;10546;50.674;4.616;2023-02-21T12:49:04;11.10;99.90
20773;DHT22;10546;50.674;4.616;2023-02-21T12:51:47;11.20;99.90
20773;DHT22;10546;50.674;4.616;2023-02-21T12:57:03;11.30;99.90
20773;DHT22;10546;50.674;4.616;2023-02-21T13:02:36;11.50;99.90
20773;DHT22;10546;50.674;4.616;2023-02-21T13:05:17;11.20;99.90
20773;DHT22;10546;50.674;4.616;2023-02-21T13:08:14;11.50;99.90
20773;DHT22;10546;50.674;4.616;2023-02-21T13:13:28;11.70;99.90
20773;DHT22;10546;50.674;4.616;2023-02-21T13:15:57;11.70;99.90
20773;DHT22;10546;50.674;4.616;2023-02-21T13:18:31;11.80;99.90
20773;DHT22;10546;50.674;4.616;2023-02-21T13:21:06;11.80;99.90
20773;DHT22;10546;50.674;4.616;2023-02-21T13:23:53;11.60;99.90
20773;DHT22;10546;50.674;4.616;2023-02-21T13:29:36;11.40;99.90
20773;DHT22;10546;50.674;4.616;2023-02-21T13:32:10;11.30;99.90
20773;DHT22;10546;50.674;4.616;2023-02-21T13:34:39;11.60;99.90
20773;DHT22;10546;50.674;4.616;2023-02-21T13:37:14;11.90;99.90
20773;DHT22;10546;50.674;4.616;2023-02-21T13:39:45;11.80;99.90
20773;DHT22;10546;50.674;4.616;2023-02-21T13:42:21;11.60;99.90
20773;DHT22;10546;50.674;4.616;2023-02-21T13:45:12;11.20;99.90
20773;DHT22;10546;50.674;4.616;2023-02-21T13:55:36;11.50;99.90
20773;DHT22;10546;50.674;4.616;2023-02-21T14:08:23;12.00;99.90
20773;DHT22;10546;50.674;4.616;2023-02-21T14:10:57;11.90;99.90
20773;DHT22;10546;50.674;4.616;2023-02-21T14:16:07;11.50;99.90
20773;DHT22;10546;50.674;4.616;2023-02-21T14:18:47;11.40;99.90
20773;DHT22;10546;50.674;4.616;2023-02-21T14:22:02;11.20;99.90
20773;DHT22;10546;50.674;4.616;2023-02-21T14:26:50;11.10;99.90
20773;DHT22;10546;50.674;4.616;2023-02-21T14:37:36;11.00;99.90
20773;DHT22;10546;50.674;4.616;2023-02-21T14:48:56;11.30;99.90
20773;DHT22;10546;50.674;4.616;2023-02-21T15:03:02;10.70;99.90
20773;DHT22;10546;50.674;4.616;2023-02-21T15:05:41;10.70;99.90
20773;DHT22;10546;50.674;4.616;2023-02-21T15:08:17;10.80;99.90
20773;DHT22;10546;50.674;4.616;2023-02-21T15:10:45;11.00;99.90
20773;DHT22;10546;50.674;4.616;2023-02-21T15:16:07;10.70;99.90
20773;DHT22;10546;50.674;4.616;2023-02-21T15:21:06;10.80;99.90
20773;DHT22;10546;50.674;4.616;2023-02-21T15:23:33;10.40;99.90
20773;DHT22;10546;50.674;4.616;2023-02-21T15:26:11;10.40;99.90
20773;DHT22;10546;50.674;4.616;2023-02-21T15:28:40;10.40;99.90
20773;DHT22;10546;50.674;4.616;2023-02-21T15:31:08;10.30;99.90
20773;DHT22;10546;50.674;4.616;2023-02-21T15:33:36;10.20;99.90
20773;DHT22;10546;50.674;4.616;2023-02-21T15:36:13;10.40;99.90
20773;DHT22;10546;50.674;4.616;2023-02-21T15:38:47;10.20;99.90
20773;DHT22;10546;50.674;4.616;2023-02-21T15:41:41;10.10;99.90
20773;DHT22;10546;50.674;4.616;2023-02-21T15:47:00;10.10;99.90
20773;DHT22;10546;50.674;4.616;2023-02-21T15:49:32;10.00;99.90
20773;DHT22;10546;50.674;4.616;2023-02-21T15:52:01;9.60;99.90
20773;DHT22;10546;50.674;4.616;2023-02-21T15:54:32;9.40;99.90
20773;DHT22;10546;50.674;4.616;2023-02-21T15:59:37;9.40;99.90
20773;DHT22;10546;50.674;4.616;2023-02-21T16:02:19;9.50;99.90
20773;DHT22;10546;50.674;4.616;2023-02-21T16:04:49;9.60;99.90
20773;DHT22;10546;50.674;4.616;2023-02-21T16:07:41;9.60;99.90
20773;DHT22;10546;50.674;4.616;2023-02-21T16:10:12;9.70;99.90
20773;DHT22;10546;50.674;4.616;2023-02-21T16:12:41;9.70;99.90
20773;DHT22;10546;50.674;4.616;2023-02-21T16:17:42;9.50;99.90
20773;DHT22;10546;50.674;4.616;2023-02-21T16:22:39;9.30;99.90
20773;DHT22;10546;50.674;4.616;2023-02-21T16:27:41;9.20;99.90
20773;DHT22;10546;50.674;4.616;2023-02-21T16:30:16;9.30;99.90
20773;DHT22;10546;50.674;4.616;2023-02-21T16:32:45;9.30;99.90
20773;DHT22;10546;50.674;4.616;2023-02-21T16:35:13;9.20;99.90
20773;DHT22;10546;50.674;4.616;2023-02-21T16:37:40;9.00;99.90
20773;DHT22;10546;50.674;4.616;2023-02-21T16:40:20;9.10;99.90
20773;DHT22;10546;50.674;4.616;2023-02-21T16:42:48;9.00;99.90
20773;DHT22;10546;50.674;4.616;2023-02-21T16:45:14;9.00;99.90
20773;DHT22;10546;50.674;4.616;2023-02-21T16:47:40;9.00;99.90
20773;DHT22;10546;50.674;4.616;2023-02-21T16:50:22;9.00;99.90
20773;DHT22;10546;50.674;4.616;2023-02-21T16:52:48;8.70;99.90
20773;DHT22;10546;50.674;4.616;2023-02-21T16:55:16;8.60;99.90
20773;DHT22;10546;50.674;4.616;2023-02-21T16:57:45;8.50;99.90
20773;DHT22;10546;50.674;4.616;2023-02-21T17:00:19;8.30;99.90
20773;DHT22;10546;50.674;4.616;2023-02-21T17:02:52;8.30;99.90
20773;DHT22;10546;50.674;4.616;2023-02-21T17:05:19;8.30;99.90
20773;DHT22;10546;50.674;4.616;2023-02-21T17:08:00;8.30;99.90
20773;DHT22;10546;50.674;4.616;2023-02-21T17:10:26;8.00;99.90
20773;DHT22;10546;50.674;4.616;2023-02-21T17:12:55;7.90;99.90
20773;DHT22;10546;50.674;4.616;2023-02-21T17:15:21;7.90;99.90
20773;DHT22;10546;50.674;4.616;2023-02-21T17:17:48;7.90;99.90
20773;DHT22;10546;50.674;4.616;2023-02-21T17:20:18;7.90;99.90
20773;DHT22;10546;50.674;4.616;2023-02-21T17:22:47;7.90;99.90
20773;DHT22;10546;50.674;4.616;2023-02-21T17:25:17;7.90;99.90
20773;DHT22;10546;50.674;4.616;2023-02-21T17:27:43;8.00;99.90
20773;DHT22;10546;50.674;4.616;2023-02-21T17:30:13;7.90;99.90
20773;DHT22;10546;50.674;4.616;2023-02-21T17:32:45;7.90;99.90
20773;DHT22;10546;50.674;4.616;2023-02-21T17:35:20;7.90;99.90
20773;DHT22;10546;50.674;4.616;2023-02-21T17:37:47;7.90;99.90
20773;DHT22;10546;50.674;4.616;2023-02-21T17:40:15;7.80;99.90
20773;DHT22;10546;50.674;4.616;2023-02-21T17:42:41;7.80;99.90
20773;DHT22;10546;50.674;4.616;2023-02-21T17:45:07;7.80;99.90
20773;DHT22;10546;50.674;4.616;2023-02-21T17:47:33;7.70;99.90
20773;DHT22;10546;50.674;4.616;2023-02-21T17:50:00;7.70;99.90
20773;DHT22;10546;50.674;4.616;2023-02-21T17:52:26;7.60;99.90
20773;DHT22;10546;50.674;4.616;2023-02-21T17:54:53;7.50;99.90
20773;DHT22;10546;50.674;4.616;2023-02-21T17:57:19;7.50;99.90
20773;DHT22;10546;50.674;4.616;2023-02-21T17:59:44;7.50;99.90
20773;DHT22;10546;50.674;4.616;2023-02-21T18:02:11;7.60;99.90
20773;DHT22;10546;50.674;4.616;2023-02-21T18:04:37;7.60;99.90
20773;DHT22;10546;50.674;4.616;2023-02-21T18:07:03;7.50;99.90
20773;DHT22;10546;50.674;4.616;2023-02-21T18:09:29;7.60;99.90
20773;DHT22;10546;50.674;4.616;2023-02-21T18:11:57;7.50;99.90
20773;DHT22;10546;50.674;4.616;2023-02-21T18:14:24;7.60;99.90
20773;DHT22;10546;50.674;4.616;2023-02-21T18:16:50;7.40;99.90
20773;DHT22;10546;50.674;4.616;2023-02-21T18:19:17;7.50;99.90
20773;DHT22;10546;50.674;4.616;2023-02-21T18:21:44;7.30;99.90
20773;DHT22;10546;50.674;4.616;2023-02-21T18:24:12;7.30;99.90
20773;DHT22;10546;50.674;4.616;2023-02-21T18:26:38;7.30;99.90
20773;DHT22;10546;50.674;4.616;2023-02-21T18:29:04;7.40;99.90
20773;DHT22;10546;50.674;4.616;2023-02-21T18:31:30;7.20;99.90
20773;DHT22;10546;50.674;4.616;2023-02-21T18:33:56;7.20;99.90
20773;DHT22;10546;50.674;4.616;2023-02-21T18:36:21;7.20;99.90
20773;DHT22;10546;50.674;4.616;2023-02-21T18:41:21;7.00;99.90
20773;DHT22;10546;50.674;4.616;2023-02-21T18:43:50;7.10;99.90
20773;DHT22;10546;50.674;4.616;2023-02-21T18:46:18;6.90;99.90
20773;DHT22;10546;50.674;4.616;2023-02-21T18:48:47;6.90;99.90
20773;DHT22;10546;50.674;4.616;2023-02-21T18:51:14;6.80;99.90
20773;DHT22;10546;50.674;4.616;2023-02-21T18:53:42;6.80;99.90
20773;DHT22;10546;50.674;4.616;2023-02-21T18:56:10;6.80;99.90
20773;DHT22;10546;50.674;4.616;2023-02-21T18:58:37;6.90;99.90
20773;DHT22;10546;50.674;4.616;2023-02-21T19:01:04;6.90;99.90
20773;DHT22;10546;50.674;4.616;2023-02-21T19:03:30;6.60;99.90
20773;DHT22;10546;50.674;4.616;2023-02-21T19:05:56;6.60;99.90
20773;DHT22;10546;50.674;4.616;2023-02-21T19:08:23;6.50;99.90
20773;DHT22;10546;50.674;4.616;2023-02-21T19:10:50;6.50;99.90
20773;DHT22;10546;50.674;4.616;2023-02-21T19:13:17;6.60;99.90
20773;DHT22;10546;50.674;4.616;2023-02-21T19:15:43;6.50;99.90
20773;DHT22;10546;50.674;4.616;2023-02-21T19:18:08;6.60;99.90
20773;DHT22;10546;50.674;4.616;2023-02-21T19:20:34;6.50;99.90
20773;DHT22;10546;50.674;4.616;2023-02-21T19:23:01;6.70;99.90
20773;DHT22;10546;50.674;4.616;2023-02-21T19:25:27;6.40;99.90
20773;DHT22;10546;50.674;4.616;2023-02-21T19:27:55;6.40;99.90
20773;DHT22;10546;50.674;4.616;2023-02-21T19:30:29;6.30;99.90
20773;DHT22;10546;50.674;4.616;2023-02-21T19:32:59;6.20;99.90
20773;DHT22;10546;50.674;4.616;2023-02-21T19:35:27;6.10;99.90
20773;DHT22;10546;50.674;4.616;2023-02-21T19:37:54;6.20;99.90
20773;DHT22;10546;50.674;4.616;2023-02-21T19:40:20;6.30;99.90
20773;DHT22;10546;50.674;4.616;2023-02-21T19:42:46;6.10;99.90
20773;DHT22;10546;50.674;4.616;2023-02-21T19:45:13;6.10;99.90
20773;DHT22;10546;50.674;4.616;2023-02-21T19:47:39;6.20;99.90
20773;DHT22;10546;50.674;4.616;2023-02-21T19:50:05;6.20;99.90
20773;DHT22;10546;50.674;4.616;2023-02-21T19:52:31;6.20;99.90
20773;DHT22;10546;50.674;4.616;2023-02-21T19:54:56;6.20;99.90
20773;DHT22;10546;50.674;4.616;2023-02-21T19:57:22;6.30;99.90
20773;DHT22;10546;50.674;4.616;2023-02-21T19:59:48;6.20;99.90
20773;DHT22;10546;50.674;4.616;2023-02-21T20:02:15;6.20;99.90
20773;DHT22;10546;50.674;4.616;2023-02-21T20:04:41;6.10;99.90
20773;DHT22;10546;50.674;4.616;2023-02-21T20:07:09;6.10;99.90
20773;DHT22;10546;50.674;4.616;2023-02-21T20:09:36;6.20;99.90
20773;DHT22;10546;50.674;4.616;2023-02-21T20:12:02;6.10;99.90
20773;DHT22;10546;50.674;4.616;2023-02-21T20:14:27;6.20;99.90
20773;DHT22;10546;50.674;4.616;2023-02-21T20:16:53;6.20;99.90
20773;DHT22;10546;50.674;4.616;2023-02-21T20:19:19;6.30;99.90
20773;DHT22;10546;50.674;4.616;2023-02-21T20:21:45;6.20;99.90
20773;DHT22;10546;50.674;4.616;2023-02-21T20:24:11;6.00;99.90
20773;DHT22;10546;50.674;4.616;2023-02-21T20:26:37;6.00;99.90
20773;DHT22;10546;50.674;4.616;2023-02-21T20:29:03;5.90;99.90
20773;DHT22;10546;50.674;4.616;2023-02-21T20:31:30;5.80;99.90
20773;DHT22;10546;50.674;4.616;2023-02-21T20:33:57;5.70;99.90
20773;DHT22;10546;50.674;4.616;2023-02-21T20:36:33;5.60;99.90
20773;DHT22;10546;50.674;4.616;2023-02-21T20:38:59;5.60;99.90
20773;DHT22;10546;50.674;4.616;2023-02-21T20:41:30;5.60;99.90
20773;DHT22;10546;50.674;4.616;2023-02-21T20:43:57;5.60;99.90
20773;DHT22;10546;50.674;4.616;2023-02-21T20:46:23;5.70;99.90
20773;DHT22;10546;50.674;4.616;2023-02-21T20:48:49;5.70;99.90
20773;DHT22;10546;50.674;4.616;2023-02-21T20:51:16;5.70;99.90
20773;DHT22;10546;50.674;4.616;2023-02-21T20:53:43;5.70;99.90
20773;DHT22;10546;50.674;4.616;2023-02-21T20:56:11;5.60;99.90
20773;DHT22;10546;50.674;4.616;2023-02-21T20:58:38;5.60;99.90
20773;DHT22;10546;50.674;4.616;2023-02-21T21:01:04;5.60;99.90
20773;DHT22;10546;50.674;4.616;2023-02-21T21:03:30;5.50;99.90
20773;DHT22;10546;50.674;4.616;2023-02-21T21:06:00;5.70;99.90
20773;DHT22;10546;50.674;4.616;2023-02-21T21:08:27;5.50;99.90
20773;DHT22;10546;50.674;4.616;2023-02-21T21:10:53;5.50;99.90
20773;DHT22;10546;50.674;4.616;2023-02-21T21:13:18;5.50;99.90
20773;DHT22;10546;50.674;4.616;2023-02-21T21:15:45;5.60;99.90
20773;DHT22;10546;50.674;4.616;2023-02-21T21:18:10;5.60;99.90
20773;DHT22;10546;50.674;4.616;2023-02-21T21:20:36;5.60;99.90
20773;DHT22;10546;50.674;4.616;2023-02-21T21:23:06;5.60;99.90
20773;DHT22;10546;50.674;4.616;2023-02-21T21:25:32;5.70;99.90
20773;DHT22;10546;50.674;4.616;2023-02-21T21:28:04;5.60;99.90
20773;DHT22;10546;50.674;4.616;2023-02-21T21:30:30;5.60;99.90
